sensor_id;sensor_type;location;lat;lon;timestamp;P1;durP1;ratioP1;P2;durP2;ratioP2
70444;SDS011;57902;49.638;11.070;2023-10-31T00:01:57;6.90;;;3.55;;
70444;SDS011;57902;49.638;11.070;2023-10-31T00:04:23;7.20;;;3.63;;
70444;SDS011;57902;49.638;11.070;2023-10-31T00:06:50;7.05;;;3.63;;
70444;SDS011;57902;49.638;11.070;2023-10-31T00:09:16;6.85;;;3.67;;
70444;SDS011;57902;49.638;11.070;2023-10-31T00:11:43;7.70;;;3.90;;
70444;SDS011;57902;49.638;11.070;2023-10-31T00:14:10;6.65;;;3.22;;
70444;SDS011;57902;49.638;11.070;2023-10-31T00:16:56;6.35;;;3.75;;
70444;SDS011;57902;49.638;11.070;2023-10-31T00:19:23;6.03;;;3.05;;
70444;SDS011;57902;49.638;11.070;2023-10-31T00:21:49;4.70;;;2.42;;
70444;SDS011;57902;49.638;11.070;2023-10-31T00:24:16;5.40;;;2.35;;
70444;SDS011;57902;49.638;11.070;2023-10-31T00:26:42;5.47;;;2.35;;
70444;SDS011;57902;49.638;11.070;2023-10-31T00:29:09;5.88;;;2.40;;
70444;SDS011;57902;49.638;11.070;2023-10-31T00:31:36;5.28;;;2.67;;
70444;SDS011;57902;49.638;11.070;2023-10-31T00:34:07;5.75;;;2.80;;
70444;SDS011;57902;49.638;11.070;2023-10-31T00:36:34;4.93;;;2.50;;
70444;SDS011;57902;49.638;11.070;2023-10-31T00:39:01;5.32;;;2.40;;
70444;SDS011;57902;49.638;11.070;2023-10-31T00:41:27;4.65;;;2.50;;
70444;SDS011;57902;49.638;11.070;2023-10-31T00:43:54;6.25;;;2.70;;
70444;SDS011;57902;49.638;11.070;2023-10-31T00:46:20;4.72;;;2.58;;
70444;SDS011;57902;49.638;11.070;2023-10-31T00:48:47;4.68;;;2.22;;
70444;SDS011;57902;49.638;11.070;2023-10-31T00:51:14;4.22;;;2.25;;
70444;SDS011;57902;49.638;11.070;2023-10-31T00:53:41;5.13;;;2.30;;
70444;SDS011;57902;49.638;11.070;2023-10-31T00:56:07;4.47;;;2.42;;
70444;SDS011;57902;49.638;11.070;2023-10-31T00:58:34;4.10;;;2.05;;
70444;SDS011;57902;49.638;11.070;2023-10-31T01:01:01;4.30;;;2.10;;
70444;SDS011;57902;49.638;11.070;2023-10-31T01:03:27;3.45;;;1.70;;
70444;SDS011;57902;49.638;11.070;2023-10-31T01:05:55;3.30;;;1.70;;
70444;SDS011;57902;49.638;11.070;2023-10-31T01:08:21;5.28;;;1.50;;
70444;SDS011;57902;49.638;11.070;2023-10-31T01:10:48;3.35;;;1.30;;
70444;SDS011;57902;49.638;11.070;2023-10-31T01:13:14;2.55;;;1.30;;
70444;SDS011;57902;49.638;11.070;2023-10-31T01:15:41;1.65;;;1.10;;
70444;SDS011;57902;49.638;11.070;2023-10-31T01:18:08;1.58;;;0.95;;
70444;SDS011;57902;49.638;11.070;2023-10-31T01:20:34;2.25;;;1.00;;
70444;SDS011;57902;49.638;11.070;2023-10-31T01:23:01;2.22;;;1.10;;
70444;SDS011;57902;49.638;11.070;2023-10-31T01:25:27;2.45;;;1.10;;
70444;SDS011;57902;49.638;11.070;2023-10-31T01:27:54;1.33;;;0.88;;
70444;SDS011;57902;49.638;11.070;2023-10-31T01:30:21;2.45;;;0.90;;
70444;SDS011;57902;49.638;11.070;2023-10-31T01:32:47;1.73;;;0.90;;
70444;SDS011;57902;49.638;11.070;2023-10-31T01:35:14;2.58;;;1.30;;
70444;SDS011;57902;49.638;11.070;2023-10-31T01:37:40;1.38;;;0.88;;
70444;SDS011;57902;49.638;11.070;2023-10-31T01:40:07;1.92;;;0.93;;
70444;SDS011;57902;49.638;11.070;2023-10-31T01:42:34;2.92;;;0.90;;
70444;SDS011;57902;49.638;11.070;2023-10-31T01:45:00;2.17;;;1.10;;
70444;SDS011;57902;49.638;11.070;2023-10-31T01:47:27;2.03;;;1.00;;
70444;SDS011;57902;49.638;11.070;2023-10-31T01:49:54;1.98;;;0.90;;
70444;SDS011;57902;49.638;11.070;2023-10-31T01:52:21;1.17;;;0.80;;
70444;SDS011;57902;49.638;11.070;2023-10-31T01:54:48;0.90;;;0.70;;
70444;SDS011;57902;49.638;11.070;2023-10-31T01:57:15;1.45;;;0.82;;
70444;SDS011;57902;49.638;11.070;2023-10-31T01:59:42;1.38;;;0.70;;
70444;SDS011;57902;49.638;11.070;2023-10-31T02:02:08;1.50;;;0.70;;
70444;SDS011;57902;49.638;11.070;2023-10-31T02:04:36;1.13;;;0.70;;
70444;SDS011;57902;49.638;11.070;2023-10-31T02:07:02;1.75;;;0.50;;
70444;SDS011;57902;49.638;11.070;2023-10-31T02:09:29;1.00;;;0.50;;
70444;SDS011;57902;49.638;11.070;2023-10-31T02:11:56;1.38;;;0.50;;
70444;SDS011;57902;49.638;11.070;2023-10-31T02:14:23;0.68;;;0.60;;
70444;SDS011;57902;49.638;11.070;2023-10-31T02:16:50;0.60;;;0.60;;
70444;SDS011;57902;49.638;11.070;2023-10-31T02:19:18;1.00;;;0.50;;
70444;SDS011;57902;49.638;11.070;2023-10-31T02:21:46;0.35;;;0.35;;
70444;SDS011;57902;49.638;11.070;2023-10-31T02:24:13;0.63;;;0.50;;
70444;SDS011;57902;49.638;11.070;2023-10-31T02:26:39;0.35;;;0.25;;
70444;SDS011;57902;49.638;11.070;2023-10-31T02:29:05;0.45;;;0.30;;
70444;SDS011;57902;49.638;11.070;2023-10-31T02:31:33;1.40;;;0.38;;
70444;SDS011;57902;49.638;11.070;2023-10-31T02:34:00;0.52;;;0.40;;
70444;SDS011;57902;49.638;11.070;2023-10-31T02:36:26;0.60;;;0.40;;
70444;SDS011;57902;49.638;11.070;2023-10-31T02:38:53;0.55;;;0.30;;
70444;SDS011;57902;49.638;11.070;2023-10-31T02:41:20;0.30;;;0.20;;
70444;SDS011;57902;49.638;11.070;2023-10-31T02:43:47;0.60;;;0.30;;
70444;SDS011;57902;49.638;11.070;2023-10-31T02:46:13;0.75;;;0.35;;
70444;SDS011;57902;49.638;11.070;2023-10-31T02:48:41;0.20;;;0.20;;
70444;SDS011;57902;49.638;11.070;2023-10-31T02:51:08;0.60;;;0.40;;
70444;SDS011;57902;49.638;11.070;2023-10-31T02:53:35;1.98;;;0.40;;
70444;SDS011;57902;49.638;11.070;2023-10-31T02:56:03;0.38;;;0.30;;
70444;SDS011;57902;49.638;11.070;2023-10-31T02:58:30;0.57;;;0.40;;
70444;SDS011;57902;49.638;11.070;2023-10-31T03:00:56;0.90;;;0.50;;
70444;SDS011;57902;49.638;11.070;2023-10-31T03:03:23;1.63;;;0.50;;
70444;SDS011;57902;49.638;11.070;2023-10-31T03:05:49;1.08;;;0.30;;
70444;SDS011;57902;49.638;11.070;2023-10-31T03:08:16;0.40;;;0.40;;
70444;SDS011;57902;49.638;11.070;2023-10-31T03:10:47;0.20;;;0.20;;
70444;SDS011;57902;49.638;11.070;2023-10-31T03:13:17;0.40;;;0.40;;
70444;SDS011;57902;49.638;11.070;2023-10-31T03:15:45;1.30;;;0.40;;
70444;SDS011;57902;49.638;11.070;2023-10-31T03:18:12;0.45;;;0.30;;
70444;SDS011;57902;49.638;11.070;2023-10-31T03:23:09;2.03;;;0.50;;
70444;SDS011;57902;49.638;11.070;2023-10-31T03:25:36;0.60;;;0.38;;
70444;SDS011;57902;49.638;11.070;2023-10-31T03:28:03;1.38;;;0.32;;
70444;SDS011;57902;49.638;11.070;2023-10-31T03:30:29;0.30;;;0.30;;
70444;SDS011;57902;49.638;11.070;2023-10-31T03:32:56;4.07;;;0.50;;
70444;SDS011;57902;49.638;11.070;2023-10-31T03:35:23;2.35;;;1.00;;
70444;SDS011;57902;49.638;11.070;2023-10-31T03:37:49;1.10;;;0.40;;
70444;SDS011;57902;49.638;11.070;2023-10-31T03:40:16;0.30;;;0.13;;
70444;SDS011;57902;49.638;11.070;2023-10-31T03:42:42;0.70;;;0.50;;
70444;SDS011;57902;49.638;11.070;2023-10-31T03:45:09;0.73;;;0.38;;
70444;SDS011;57902;49.638;11.070;2023-10-31T03:47:35;0.35;;;0.30;;
70444;SDS011;57902;49.638;11.070;2023-10-31T03:50:02;1.40;;;0.40;;
70444;SDS011;57902;49.638;11.070;2023-10-31T03:52:29;0.60;;;0.40;;
70444;SDS011;57902;49.638;11.070;2023-10-31T03:54:56;0.40;;;0.40;;
70444;SDS011;57902;49.638;11.070;2023-10-31T03:57:22;0.60;;;0.30;;
70444;SDS011;57902;49.638;11.070;2023-10-31T03:59:49;0.95;;;0.32;;
70444;SDS011;57902;49.638;11.070;2023-10-31T04:02:15;0.52;;;0.40;;
70444;SDS011;57902;49.638;11.070;2023-10-31T04:04:42;0.50;;;0.43;;
70444;SDS011;57902;49.638;11.070;2023-10-31T04:07:09;1.08;;;0.60;;
70444;SDS011;57902;49.638;11.070;2023-10-31T04:09:35;0.93;;;0.50;;
70444;SDS011;57902;49.638;11.070;2023-10-31T04:12:02;0.57;;;0.43;;
70444;SDS011;57902;49.638;11.070;2023-10-31T04:14:28;0.45;;;0.40;;
70444;SDS011;57902;49.638;11.070;2023-10-31T04:16:55;1.08;;;0.40;;
70444;SDS011;57902;49.638;11.070;2023-10-31T04:19:21;0.55;;;0.40;;
70444;SDS011;57902;49.638;11.070;2023-10-31T04:21:48;1.52;;;0.60;;
70444;SDS011;57902;49.638;11.070;2023-10-31T04:24:14;1.23;;;0.50;;
70444;SDS011;57902;49.638;11.070;2023-10-31T04:26:41;1.90;;;0.38;;
70444;SDS011;57902;49.638;11.070;2023-10-31T04:29:07;0.73;;;0.50;;
70444;SDS011;57902;49.638;11.070;2023-10-31T04:31:34;1.85;;;0.60;;
70444;SDS011;57902;49.638;11.070;2023-10-31T04:34:09;0.88;;;0.50;;
70444;SDS011;57902;49.638;11.070;2023-10-31T04:36:36;1.60;;;0.73;;
70444;SDS011;57902;49.638;11.070;2023-10-31T04:39:02;1.23;;;0.32;;
70444;SDS011;57902;49.638;11.070;2023-10-31T04:41:29;1.50;;;0.47;;
70444;SDS011;57902;49.638;11.070;2023-10-31T04:43:56;1.27;;;0.50;;
70444;SDS011;57902;49.638;11.070;2023-10-31T04:46:24;1.83;;;0.60;;
70444;SDS011;57902;49.638;11.070;2023-10-31T04:48:53;1.35;;;0.55;;
70444;SDS011;57902;49.638;11.070;2023-10-31T04:51:20;0.43;;;0.43;;
70444;SDS011;57902;49.638;11.070;2023-10-31T04:53:46;0.40;;;0.40;;
70444;SDS011;57902;49.638;11.070;2023-10-31T04:56:14;2.28;;;0.52;;
70444;SDS011;57902;49.638;11.070;2023-10-31T04:58:41;1.70;;;0.60;;
70444;SDS011;57902;49.638;11.070;2023-10-31T05:01:09;1.70;;;0.60;;
70444;SDS011;57902;49.638;11.070;2023-10-31T05:03:37;1.83;;;0.85;;
70444;SDS011;57902;49.638;11.070;2023-10-31T05:06:04;0.90;;;0.60;;
70444;SDS011;57902;49.638;11.070;2023-10-31T05:08:31;0.63;;;0.50;;
70444;SDS011;57902;49.638;11.070;2023-10-31T05:10:58;1.52;;;0.57;;
70444;SDS011;57902;49.638;11.070;2023-10-31T05:13:25;1.67;;;0.50;;
70444;SDS011;57902;49.638;11.070;2023-10-31T05:15:52;1.17;;;0.70;;
70444;SDS011;57902;49.638;11.070;2023-10-31T05:18:19;1.92;;;0.70;;
70444;SDS011;57902;49.638;11.070;2023-10-31T05:20:45;1.60;;;0.70;;
70444;SDS011;57902;49.638;11.070;2023-10-31T05:23:13;0.90;;;0.70;;
70444;SDS011;57902;49.638;11.070;2023-10-31T05:25:40;2.42;;;0.70;;
70444;SDS011;57902;49.638;11.070;2023-10-31T05:28:06;1.85;;;0.60;;
70444;SDS011;57902;49.638;11.070;2023-10-31T05:30:33;1.13;;;0.60;;
70444;SDS011;57902;49.638;11.070;2023-10-31T05:33:00;2.33;;;1.00;;
70444;SDS011;57902;49.638;11.070;2023-10-31T05:35:26;1.73;;;0.60;;
70444;SDS011;57902;49.638;11.070;2023-10-31T05:37:53;2.15;;;0.60;;
70444;SDS011;57902;49.638;11.070;2023-10-31T05:40:20;1.98;;;0.68;;
70444;SDS011;57902;49.638;11.070;2023-10-31T05:42:48;1.40;;;0.57;;
70444;SDS011;57902;49.638;11.070;2023-10-31T05:45:15;3.35;;;1.13;;
70444;SDS011;57902;49.638;11.070;2023-10-31T05:47:41;0.75;;;0.60;;
70444;SDS011;57902;49.638;11.070;2023-10-31T05:50:08;0.98;;;0.70;;
70444;SDS011;57902;49.638;11.070;2023-10-31T05:52:35;1.63;;;0.70;;
70444;SDS011;57902;49.638;11.070;2023-10-31T05:55:02;1.23;;;0.82;;
70444;SDS011;57902;49.638;11.070;2023-10-31T05:57:29;1.83;;;1.05;;
70444;SDS011;57902;49.638;11.070;2023-10-31T05:59:55;2.47;;;0.70;;
70444;SDS011;57902;49.638;11.070;2023-10-31T06:02:22;3.28;;;1.00;;
70444;SDS011;57902;49.638;11.070;2023-10-31T06:04:49;1.00;;;0.75;;
70444;SDS011;57902;49.638;11.070;2023-10-31T06:07:15;0.52;;;0.47;;
70444;SDS011;57902;49.638;11.070;2023-10-31T06:09:42;2.88;;;0.88;;
70444;SDS011;57902;49.638;11.070;2023-10-31T06:12:08;0.80;;;0.60;;
70444;SDS011;57902;49.638;11.070;2023-10-31T06:14:35;0.90;;;0.50;;
70444;SDS011;57902;49.638;11.070;2023-10-31T06:17:03;1.42;;;0.60;;
70444;SDS011;57902;49.638;11.070;2023-10-31T06:19:33;2.63;;;0.60;;
70444;SDS011;57902;49.638;11.070;2023-10-31T06:22:01;1.20;;;0.52;;
70444;SDS011;57902;49.638;11.070;2023-10-31T06:24:28;1.88;;;0.70;;
70444;SDS011;57902;49.638;11.070;2023-10-31T06:26:55;3.42;;;0.43;;
70444;SDS011;57902;49.638;11.070;2023-10-31T06:29:21;1.88;;;0.70;;
70444;SDS011;57902;49.638;11.070;2023-10-31T06:32:08;0.77;;;0.60;;
70444;SDS011;57902;49.638;11.070;2023-10-31T06:34:35;1.88;;;0.60;;
70444;SDS011;57902;49.638;11.070;2023-10-31T06:37:01;3.30;;;0.52;;
70444;SDS011;57902;49.638;11.070;2023-10-31T06:39:28;4.72;;;0.70;;
70444;SDS011;57902;49.638;11.070;2023-10-31T06:41:54;6.88;;;0.60;;
70444;SDS011;57902;49.638;11.070;2023-10-31T06:44:22;1.55;;;0.80;;
70444;SDS011;57902;49.638;11.070;2023-10-31T06:46:48;1.00;;;0.63;;
70444;SDS011;57902;49.638;11.070;2023-10-31T06:49:15;1.60;;;0.80;;
70444;SDS011;57902;49.638;11.070;2023-10-31T06:51:42;2.55;;;0.80;;
70444;SDS011;57902;49.638;11.070;2023-10-31T06:54:08;0.93;;;0.65;;
70444;SDS011;57902;49.638;11.070;2023-10-31T06:56:35;1.55;;;0.90;;
70444;SDS011;57902;49.638;11.070;2023-10-31T06:59:01;2.60;;;0.60;;
70444;SDS011;57902;49.638;11.070;2023-10-31T07:01:28;3.00;;;0.60;;
70444;SDS011;57902;49.638;11.070;2023-10-31T07:03:55;3.22;;;0.70;;
70444;SDS011;57902;49.638;11.070;2023-10-31T07:06:21;2.95;;;0.60;;
70444;SDS011;57902;49.638;11.070;2023-10-31T07:08:48;3.75;;;0.80;;
70444;SDS011;57902;49.638;11.070;2023-10-31T07:11:14;2.10;;;0.60;;
70444;SDS011;57902;49.638;11.070;2023-10-31T07:13:41;0.93;;;0.50;;
70444;SDS011;57902;49.638;11.070;2023-10-31T07:16:07;4.03;;;0.60;;
70444;SDS011;57902;49.638;11.070;2023-10-31T07:18:34;1.75;;;0.80;;
70444;SDS011;57902;49.638;11.070;2023-10-31T07:21:00;1.75;;;0.57;;
70444;SDS011;57902;49.638;11.070;2023-10-31T07:23:27;1.92;;;0.43;;
70444;SDS011;57902;49.638;11.070;2023-10-31T07:25:53;1.40;;;0.65;;
70444;SDS011;57902;49.638;11.070;2023-10-31T07:28:20;4.68;;;0.60;;
70444;SDS011;57902;49.638;11.070;2023-10-31T07:30:47;3.15;;;0.80;;
70444;SDS011;57902;49.638;11.070;2023-10-31T07:33:14;1.27;;;0.55;;
70444;SDS011;57902;49.638;11.070;2023-10-31T07:35:41;1.63;;;0.63;;
70444;SDS011;57902;49.638;11.070;2023-10-31T07:38:07;1.15;;;0.60;;
70444;SDS011;57902;49.638;11.070;2023-10-31T07:40:34;1.05;;;0.60;;
70444;SDS011;57902;49.638;11.070;2023-10-31T07:43:00;1.88;;;0.70;;
70444;SDS011;57902;49.638;11.070;2023-10-31T07:45:27;3.10;;;0.68;;
70444;SDS011;57902;49.638;11.070;2023-10-31T07:47:54;2.67;;;0.70;;
70444;SDS011;57902;49.638;11.070;2023-10-31T07:50:21;1.55;;;0.60;;
70444;SDS011;57902;49.638;11.070;2023-10-31T07:52:47;1.55;;;0.60;;
70444;SDS011;57902;49.638;11.070;2023-10-31T07:55:14;2.03;;;0.60;;
70444;SDS011;57902;49.638;11.070;2023-10-31T07:57:40;0.88;;;0.50;;
70444;SDS011;57902;49.638;11.070;2023-10-31T08:00:10;2.67;;;0.60;;
70444;SDS011;57902;49.638;11.070;2023-10-31T08:02:38;2.47;;;0.77;;
70444;SDS011;57902;49.638;11.070;2023-10-31T08:05:05;3.47;;;0.63;;
70444;SDS011;57902;49.638;11.070;2023-10-31T08:10:00;1.77;;;0.60;;
70444;SDS011;57902;49.638;11.070;2023-10-31T08:12:26;1.65;;;0.50;;
70444;SDS011;57902;49.638;11.070;2023-10-31T08:14:53;1.92;;;0.73;;
70444;SDS011;57902;49.638;11.070;2023-10-31T08:17:19;1.45;;;0.70;;
70444;SDS011;57902;49.638;11.070;2023-10-31T08:19:46;1.25;;;0.45;;
70444;SDS011;57902;49.638;11.070;2023-10-31T08:22:14;4.22;;;0.60;;
70444;SDS011;57902;49.638;11.070;2023-10-31T08:24:40;1.58;;;0.63;;
70444;SDS011;57902;49.638;11.070;2023-10-31T08:27:07;2.40;;;0.70;;
70444;SDS011;57902;49.638;11.070;2023-10-31T08:29:33;2.05;;;0.70;;
70444;SDS011;57902;49.638;11.070;2023-10-31T08:32:00;1.05;;;0.70;;
70444;SDS011;57902;49.638;11.070;2023-10-31T08:34:27;1.30;;;0.47;;
70444;SDS011;57902;49.638;11.070;2023-10-31T08:36:53;2.67;;;0.80;;
70444;SDS011;57902;49.638;11.070;2023-10-31T08:39:22;1.65;;;0.55;;
70444;SDS011;57902;49.638;11.070;2023-10-31T08:41:52;1.52;;;0.60;;
70444;SDS011;57902;49.638;11.070;2023-10-31T08:44:23;2.30;;;0.57;;
70444;SDS011;57902;49.638;11.070;2023-10-31T08:46:50;3.28;;;0.80;;
70444;SDS011;57902;49.638;11.070;2023-10-31T08:49:16;0.90;;;0.55;;
70444;SDS011;57902;49.638;11.070;2023-10-31T08:51:44;1.70;;;0.60;;
70444;SDS011;57902;49.638;11.070;2023-10-31T08:54:11;1.17;;;0.63;;
70444;SDS011;57902;49.638;11.070;2023-10-31T08:56:37;1.23;;;0.60;;
70444;SDS011;57902;49.638;11.070;2023-10-31T08:59:04;1.52;;;0.50;;
70444;SDS011;57902;49.638;11.070;2023-10-31T09:01:31;1.70;;;0.50;;
70444;SDS011;57902;49.638;11.070;2023-10-31T09:06:26;1.98;;;0.40;;
70444;SDS011;57902;49.638;11.070;2023-10-31T09:08:52;2.58;;;0.68;;
70444;SDS011;57902;49.638;11.070;2023-10-31T09:11:19;1.20;;;0.60;;
70444;SDS011;57902;49.638;11.070;2023-10-31T09:13:46;1.73;;;0.50;;
70444;SDS011;57902;49.638;11.070;2023-10-31T09:16:13;1.23;;;0.50;;
70444;SDS011;57902;49.638;11.070;2023-10-31T09:18:40;3.38;;;0.80;;
70444;SDS011;57902;49.638;11.070;2023-10-31T09:21:07;0.85;;;0.63;;
70444;SDS011;57902;49.638;11.070;2023-10-31T09:23:34;2.70;;;0.80;;
70444;SDS011;57902;49.638;11.070;2023-10-31T09:26:00;1.10;;;0.75;;
70444;SDS011;57902;49.638;11.070;2023-10-31T09:28:27;0.77;;;0.60;;
70444;SDS011;57902;49.638;11.070;2023-10-31T09:30:54;2.50;;;0.60;;
70444;SDS011;57902;49.638;11.070;2023-10-31T09:33:21;2.75;;;0.70;;
70444;SDS011;57902;49.638;11.070;2023-10-31T09:35:47;1.88;;;0.75;;
70444;SDS011;57902;49.638;11.070;2023-10-31T09:38:17;1.95;;;0.68;;
70444;SDS011;57902;49.638;11.070;2023-10-31T09:40:43;1.55;;;0.68;;
70444;SDS011;57902;49.638;11.070;2023-10-31T09:43:10;0.60;;;0.60;;
70444;SDS011;57902;49.638;11.070;2023-10-31T09:45:37;2.42;;;0.47;;
70444;SDS011;57902;49.638;11.070;2023-10-31T09:48:04;2.88;;;0.70;;
70444;SDS011;57902;49.638;11.070;2023-10-31T09:50:31;1.45;;;0.40;;
70444;SDS011;57902;49.638;11.070;2023-10-31T09:52:58;1.02;;;0.70;;
70444;SDS011;57902;49.638;11.070;2023-10-31T09:55:26;3.42;;;0.70;;
70444;SDS011;57902;49.638;11.070;2023-10-31T09:57:52;2.10;;;0.50;;
70444;SDS011;57902;49.638;11.070;2023-10-31T10:00:20;0.80;;;0.60;;
70444;SDS011;57902;49.638;11.070;2023-10-31T10:02:46;1.23;;;0.50;;
70444;SDS011;57902;49.638;11.070;2023-10-31T10:05:14;4.28;;;1.00;;
70444;SDS011;57902;49.638;11.070;2023-10-31T10:07:44;3.38;;;1.20;;
70444;SDS011;57902;49.638;11.070;2023-10-31T10:10:11;0.60;;;0.50;;
70444;SDS011;57902;49.638;11.070;2023-10-31T10:12:40;2.50;;;0.85;;
70444;SDS011;57902;49.638;11.070;2023-10-31T10:15:08;2.65;;;0.57;;
70444;SDS011;57902;49.638;11.070;2023-10-31T10:17:37;0.85;;;0.57;;
70444;SDS011;57902;49.638;11.070;2023-10-31T10:22:38;0.63;;;0.57;;
70444;SDS011;57902;49.638;11.070;2023-10-31T10:25:07;1.33;;;0.80;;
70444;SDS011;57902;49.638;11.070;2023-10-31T10:27:33;0.45;;;0.45;;
70444;SDS011;57902;49.638;11.070;2023-10-31T10:30:00;1.55;;;0.98;;
70444;SDS011;57902;49.638;11.070;2023-10-31T10:32:27;1.13;;;0.57;;
70444;SDS011;57902;49.638;11.070;2023-10-31T10:34:54;2.15;;;0.88;;
70444;SDS011;57902;49.638;11.070;2023-10-31T10:37:23;1.60;;;0.70;;
70444;SDS011;57902;49.638;11.070;2023-10-31T10:45:10;5.00;;;0.60;;
70444;SDS011;57902;49.638;11.070;2023-10-31T10:47:39;5.22;;;0.77;;
70444;SDS011;57902;49.638;11.070;2023-10-31T10:50:10;0.73;;;0.68;;
70444;SDS011;57902;49.638;11.070;2023-10-31T10:52:41;1.17;;;0.70;;
70444;SDS011;57902;49.638;11.070;2023-10-31T10:55:13;2.03;;;0.75;;
70444;SDS011;57902;49.638;11.070;2023-10-31T11:00:21;3.20;;;0.90;;
70444;SDS011;57902;49.638;11.070;2023-10-31T11:02:51;1.85;;;0.65;;
70444;SDS011;57902;49.638;11.070;2023-10-31T11:05:19;2.15;;;0.70;;
70444;SDS011;57902;49.638;11.070;2023-10-31T11:07:46;2.80;;;1.10;;
70444;SDS011;57902;49.638;11.070;2023-10-31T11:10:14;1.50;;;0.52;;
70444;SDS011;57902;49.638;11.070;2023-10-31T11:12:41;3.17;;;0.73;;
70444;SDS011;57902;49.638;11.070;2023-10-31T11:15:09;1.25;;;0.68;;
70444;SDS011;57902;49.638;11.070;2023-10-31T11:17:38;1.40;;;0.60;;
70444;SDS011;57902;49.638;11.070;2023-10-31T11:20:08;1.40;;;0.70;;
70444;SDS011;57902;49.638;11.070;2023-10-31T11:22:37;1.98;;;0.80;;
70444;SDS011;57902;49.638;11.070;2023-10-31T11:25:06;2.22;;;0.60;;
70444;SDS011;57902;49.638;11.070;2023-10-31T11:27:41;4.05;;;0.63;;
70444;SDS011;57902;49.638;11.070;2023-10-31T11:30:08;1.92;;;0.80;;
70444;SDS011;57902;49.638;11.070;2023-10-31T11:33:10;1.00;;;0.60;;
70444;SDS011;57902;49.638;11.070;2023-10-31T11:35:38;2.33;;;0.70;;
70444;SDS011;57902;49.638;11.070;2023-10-31T11:38:08;2.25;;;1.00;;
70444;SDS011;57902;49.638;11.070;2023-10-31T11:41:21;0.60;;;0.50;;
70444;SDS011;57902;49.638;11.070;2023-10-31T11:46:23;1.95;;;0.77;;
70444;SDS011;57902;49.638;11.070;2023-10-31T11:48:53;2.97;;;0.80;;
70444;SDS011;57902;49.638;11.070;2023-10-31T11:51:23;4.03;;;1.00;;
70444;SDS011;57902;49.638;11.070;2023-10-31T11:53:50;1.98;;;0.95;;
70444;SDS011;57902;49.638;11.070;2023-10-31T11:56:16;2.10;;;0.85;;
70444;SDS011;57902;49.638;11.070;2023-10-31T11:58:43;2.45;;;0.82;;
70444;SDS011;57902;49.638;11.070;2023-10-31T12:01:10;3.50;;;1.13;;
70444;SDS011;57902;49.638;11.070;2023-10-31T12:08:35;1.60;;;1.20;;
70444;SDS011;57902;49.638;11.070;2023-10-31T12:11:07;2.92;;;0.80;;
70444;SDS011;57902;49.638;11.070;2023-10-31T12:13:35;2.58;;;1.30;;
70444;SDS011;57902;49.638;11.070;2023-10-31T12:16:06;5.93;;;1.92;;
70444;SDS011;57902;49.638;11.070;2023-10-31T12:21:02;5.30;;;1.20;;
70444;SDS011;57902;49.638;11.070;2023-10-31T12:23:29;4.20;;;0.80;;
70444;SDS011;57902;49.638;11.070;2023-10-31T12:25:56;3.15;;;1.40;;
70444;SDS011;57902;49.638;11.070;2023-10-31T12:28:24;3.13;;;1.20;;
70444;SDS011;57902;49.638;11.070;2023-10-31T12:30:52;1.50;;;0.90;;
70444;SDS011;57902;49.638;11.070;2023-10-31T12:33:21;3.80;;;1.15;;
70444;SDS011;57902;49.638;11.070;2023-10-31T12:35:52;3.25;;;1.05;;
70444;SDS011;57902;49.638;11.070;2023-10-31T12:38:23;1.52;;;0.88;;
70444;SDS011;57902;49.638;11.070;2023-10-31T12:40:50;2.13;;;1.17;;
70444;SDS011;57902;49.638;11.070;2023-10-31T12:43:18;2.67;;;0.90;;
70444;SDS011;57902;49.638;11.070;2023-10-31T12:45:51;4.68;;;1.80;;
70444;SDS011;57902;49.638;11.070;2023-10-31T12:48:23;2.22;;;0.90;;
70444;SDS011;57902;49.638;11.070;2023-10-31T12:50:50;5.05;;;0.93;;
70444;SDS011;57902;49.638;11.070;2023-10-31T12:53:32;3.25;;;0.75;;
70444;SDS011;57902;49.638;11.070;2023-10-31T12:56:00;2.53;;;0.93;;
70444;SDS011;57902;49.638;11.070;2023-10-31T12:58:26;3.25;;;0.82;;
70444;SDS011;57902;49.638;11.070;2023-10-31T13:00:53;2.05;;;0.80;;
70444;SDS011;57902;49.638;11.070;2023-10-31T13:03:22;2.55;;;0.82;;
70444;SDS011;57902;49.638;11.070;2023-10-31T13:05:49;2.40;;;0.80;;
70444;SDS011;57902;49.638;11.070;2023-10-31T13:08:16;1.98;;;0.70;;
70444;SDS011;57902;49.638;11.070;2023-10-31T13:10:43;2.72;;;0.80;;
70444;SDS011;57902;49.638;11.070;2023-10-31T13:13:10;2.38;;;0.80;;
70444;SDS011;57902;49.638;11.070;2023-10-31T13:15:39;2.63;;;0.80;;
70444;SDS011;57902;49.638;11.070;2023-10-31T13:18:06;3.03;;;0.70;;
70444;SDS011;57902;49.638;11.070;2023-10-31T13:20:33;2.05;;;0.90;;
70444;SDS011;57902;49.638;11.070;2023-10-31T13:22:59;0.95;;;0.35;;
70444;SDS011;57902;49.638;11.070;2023-10-31T13:25:29;5.43;;;1.10;;
70444;SDS011;57902;49.638;11.070;2023-10-31T13:27:57;1.75;;;0.70;;
70444;SDS011;57902;49.638;11.070;2023-10-31T13:30:24;4.97;;;1.10;;
70444;SDS011;57902;49.638;11.070;2023-10-31T13:32:52;1.85;;;0.80;;
70444;SDS011;57902;49.638;11.070;2023-10-31T13:35:19;3.20;;;1.00;;
70444;SDS011;57902;49.638;11.070;2023-10-31T13:37:46;3.33;;;1.00;;
70444;SDS011;57902;49.638;11.070;2023-10-31T13:40:13;2.00;;;0.82;;
70444;SDS011;57902;49.638;11.070;2023-10-31T13:42:40;9.02;;;3.10;;
70444;SDS011;57902;49.638;11.070;2023-10-31T13:45:07;5.28;;;1.50;;
70444;SDS011;57902;49.638;11.070;2023-10-31T13:47:33;3.65;;;1.20;;
70444;SDS011;57902;49.638;11.070;2023-10-31T13:50:01;4.35;;;1.00;;
70444;SDS011;57902;49.638;11.070;2023-10-31T13:52:28;2.08;;;1.00;;
70444;SDS011;57902;49.638;11.070;2023-10-31T13:54:55;3.42;;;1.40;;
70444;SDS011;57902;49.638;11.070;2023-10-31T13:57:21;2.15;;;0.80;;
70444;SDS011;57902;49.638;11.070;2023-10-31T13:59:49;3.67;;;0.80;;
70444;SDS011;57902;49.638;11.070;2023-10-31T14:02:16;2.83;;;0.60;;
70444;SDS011;57902;49.638;11.070;2023-10-31T14:04:44;1.45;;;0.70;;
70444;SDS011;57902;49.638;11.070;2023-10-31T14:07:12;5.25;;;1.13;;
70444;SDS011;57902;49.638;11.070;2023-10-31T14:09:45;3.63;;;1.23;;
70444;SDS011;57902;49.638;11.070;2023-10-31T14:14:40;1.90;;;1.08;;
70444;SDS011;57902;49.638;11.070;2023-10-31T14:17:07;2.83;;;0.82;;
70444;SDS011;57902;49.638;11.070;2023-10-31T14:19:33;5.05;;;0.90;;
70444;SDS011;57902;49.638;11.070;2023-10-31T14:22:00;2.30;;;0.73;;
70444;SDS011;57902;49.638;11.070;2023-10-31T14:24:27;2.38;;;0.95;;
70444;SDS011;57902;49.638;11.070;2023-10-31T14:26:54;4.70;;;0.90;;
70444;SDS011;57902;49.638;11.070;2023-10-31T14:29:20;5.03;;;1.90;;
70444;SDS011;57902;49.638;11.070;2023-10-31T14:31:47;3.58;;;1.00;;
70444;SDS011;57902;49.638;11.070;2023-10-31T14:34:14;2.58;;;0.82;;
70444;SDS011;57902;49.638;11.070;2023-10-31T14:36:40;4.88;;;1.00;;
70444;SDS011;57902;49.638;11.070;2023-10-31T14:39:07;3.97;;;1.48;;
70444;SDS011;57902;49.638;11.070;2023-10-31T14:41:35;6.93;;;1.35;;
70444;SDS011;57902;49.638;11.070;2023-10-31T14:44:02;2.95;;;1.00;;
70444;SDS011;57902;49.638;11.070;2023-10-31T14:46:29;3.05;;;0.90;;
70444;SDS011;57902;49.638;11.070;2023-10-31T14:48:56;3.53;;;0.90;;
70444;SDS011;57902;49.638;11.070;2023-10-31T14:51:23;3.53;;;0.88;;
70444;SDS011;57902;49.638;11.070;2023-10-31T14:53:50;4.82;;;1.23;;
70444;SDS011;57902;49.638;11.070;2023-10-31T14:56:17;4.05;;;1.05;;
70444;SDS011;57902;49.638;11.070;2023-10-31T14:58:44;6.28;;;1.20;;
70444;SDS011;57902;49.638;11.070;2023-10-31T15:01:10;5.72;;;1.02;;
70444;SDS011;57902;49.638;11.070;2023-10-31T15:03:37;3.35;;;0.93;;
70444;SDS011;57902;49.638;11.070;2023-10-31T15:06:04;6.63;;;1.08;;